Аэропорт: Мирный. Мирный

ICAO: UERR

METAR:
Информация по данной станции не доступна
METAR:
2019-09-21 14:00:00
TAF UERR 211400Z 2115/2215 25004G09MPS 9999 SCT010 BKN020CB OVC100 TEMPO 2118/2124 0300 FZFG VV003